Skip Navigation LinksHome page > Weather > Current weather Skip Navigation Links

Current Weather

Minneapolis-St Paul Intl/Wold-Chamberlain, Minneapolis

For information only: do not use for flight planning or navigation.
Latest weather
Observation time Thursday, November 21, 2019 12:53 PM CST
Local time Thursday, November 21, 2019 2:01 PM CST
Flight conditions Marginal Visual Meteorological Conditions
Winds
Wind direction North-Northwest (330°)
Wind speed 21 mph
Wind gusting to 29 mph
Visibility 10 mi.
Sky condition
Ceiling 1,900 ft. overcast
Cloud layer overcast 1,900 ft.
Temperature 36°F
Dewpoint 29°F
Altimeter 29.91 in.Hg
Derived measurements
Relative humidity 75%
Wind chill 25°F
Density altitude -620 ft.
Sea-level pressure 29.93 in.Hg
Remarks
Automated weather observing station with precipitation discriminator.
METAR KMSP 211853Z 33018G25KT 10SM OVC019 02/M02 A2991 RMK AO2 SLP137 T00221017

Settings

Location code

InnerDrive.Weather 4.0.6770.0 Release CLR 4.0.30319.42000
Copyright ©2018 Inner Drive Technology. All rights reserved. Portions Copyright ©1986-2018 David Braverman.

Find weather

Site navigation


Skip Navigation Links

Place info

Page info

PayPal - The safer, easier way to pay online!

Return home.

Copyright ©2019 Inner Drive Technology. Purveyors of fine, hand-crafted computer software. Page printed 2019-11-21T20:01:38 UTC.